createdAt,value
2018-11-05T00:00:53.411Z,63.20
2018-11-05T00:01:52.267Z,61.00
2018-11-05T00:02:54.330Z,56.80
2018-11-05T00:03:52.212Z,62.10
2018-11-05T00:09:13.927Z,56.70
2018-11-05T00:10:13.863Z,59.90
2018-11-05T00:11:18.671Z,66.50
2018-11-05T00:12:13.793Z,63.30
2018-11-05T00:13:13.766Z,64.00
2018-11-05T00:14:13.802Z,54.40
2018-11-05T00:15:13.692Z,68.90
2018-11-05T00:16:13.669Z,65.30
2018-11-05T00:17:13.642Z,69.80
2018-11-05T00:18:13.623Z,67.40
2018-11-05T00:19:13.576Z,64.60
2018-11-05T00:20:13.554Z,71.90
2018-11-05T00:21:13.513Z,63.30
2018-11-05T00:22:13.497Z,80.20
2018-11-05T00:23:13.451Z,77.40
2018-11-05T00:24:13.428Z,82.10
2018-11-05T00:25:13.401Z,90.50
2018-11-05T00:26:13.373Z,87.60
2018-11-05T00:27:13.343Z,94.80
2018-11-05T00:28:13.332Z,94.10
2018-11-05T00:29:13.282Z,103.40
2018-11-05T00:30:13.250Z,91.20
2018-11-05T00:31:13.306Z,99.00
2018-11-05T00:32:13.201Z,101.80
2018-11-05T00:32:59.257Z,102.80
2018-11-05T00:33:59.219Z,84.10
2018-11-05T00:34:59.182Z,94.70
2018-11-05T00:35:59.155Z,93.70
2018-11-05T00:36:59.133Z,95.90
2018-11-05T00:37:59.091Z,102.70
2018-11-05T00:38:59.057Z,97.00
2018-11-05T00:39:59.030Z,106.90
2018-11-05T00:40:59.005Z,102.20
2018-11-05T00:41:58.977Z,101.30
2018-11-05T00:42:58.948Z,106.00
2018-11-05T00:43:58.919Z,110.50
2018-11-05T00:44:58.882Z,109.60
2018-11-05T00:45:58.861Z,116.90
2018-11-05T00:46:58.827Z,98.60
2018-11-05T00:47:58.792Z,101.80
2018-11-05T00:48:58.771Z,102.40
2018-11-05T00:49:58.750Z,119.60
2018-11-05T00:50:58.717Z,108.60
2018-11-05T00:51:58.686Z,113.30
2018-11-05T00:52:58.650Z,115.90
2018-11-05T00:53:58.641Z,125.90
2018-11-05T00:54:58.596Z,112.80
2018-11-05T00:55:58.560Z,110.90
2018-11-05T00:56:58.546Z,119.00
2018-11-05T00:57:58.509Z,109.20
2018-11-05T00:59:44.645Z,117.60
2018-11-05T01:00:44.582Z,120.80
2018-11-05T01:01:44.558Z,122.10
2018-11-05T01:02:44.523Z,117.20
2018-11-05T01:03:44.491Z,102.30
2018-11-05T01:04:44.471Z,115.40
2018-11-05T01:05:44.463Z,123.10
2018-11-05T01:06:44.409Z,112.20
2018-11-05T01:07:44.378Z,108.20
2018-11-05T01:08:44.349Z,105.70
2018-11-05T01:09:44.313Z,114.00
2018-11-05T01:10:44.293Z,105.30
2018-11-05T01:11:44.277Z,108.40
2018-11-05T01:12:44.233Z,116.00
2018-11-05T01:13:44.192Z,102.40
2018-11-05T01:14:44.172Z,111.60
2018-11-05T01:15:44.138Z,116.70
2018-11-05T01:16:44.140Z,108.20
2018-11-05T01:17:44.085Z,109.90
2018-11-05T01:18:44.056Z,115.60
2018-11-05T01:19:44.017Z,120.70
2018-11-05T01:20:44.070Z,117.20
2018-11-05T01:21:30.199Z,129.00
2018-11-05T01:22:30.147Z,123.00
2018-11-05T01:23:30.129Z,125.40
2018-11-05T01:24:30.094Z,109.70
2018-11-05T01:25:30.070Z,129.60
2018-11-05T01:26:30.037Z,115.30
2018-11-05T01:27:30.001Z,114.00
2018-11-05T01:28:29.997Z,124.40
2018-11-05T01:29:29.947Z,127.80
2018-11-05T01:30:29.910Z,124.40
2018-11-05T01:31:29.885Z,123.00
2018-11-05T01:32:29.858Z,139.30
2018-11-05T01:33:29.829Z,133.90
2018-11-05T01:34:15.720Z,129.00
2018-11-05T01:35:15.709Z,142.00
2018-11-05T01:36:15.648Z,138.70
2018-11-05T01:37:15.640Z,144.50
2018-11-05T01:38:15.600Z,135.70
2018-11-05T01:39:15.566Z,130.00
2018-11-05T01:40:15.542Z,124.20
2018-11-05T01:41:15.503Z,141.80
2018-11-05T01:42:15.478Z,135.00
2018-11-05T01:43:15.452Z,135.50
2018-11-05T01:44:15.419Z,120.20
2018-11-05T01:45:15.379Z,114.90
2018-11-05T01:46:15.366Z,129.70
2018-11-05T01:47:15.338Z,127.00
2018-11-05T01:48:15.304Z,124.70
2018-11-05T01:49:15.283Z,118.10
2018-11-05T01:50:16.320Z,123.90
2018-11-05T01:51:15.208Z,130.30
2018-11-05T01:53:10.677Z,169.60
2018-11-05T01:54:10.712Z,135.40
2018-11-05T01:55:10.634Z,122.30
2018-11-05T01:56:10.581Z,122.00
2018-11-05T01:57:02.581Z,160.30
2018-11-05T01:58:02.473Z,127.20
2018-11-05T01:59:02.460Z,137.10
2018-11-05T02:00:02.408Z,149.00
2018-11-05T02:01:02.371Z,129.20
2018-11-05T02:02:02.371Z,137.10
2018-11-05T02:03:02.319Z,136.80
2018-11-05T02:04:02.290Z,136.70
2018-11-05T02:05:02.262Z,131.30
2018-11-05T02:06:02.228Z,131.80
2018-11-05T02:07:02.193Z,129.90
2018-11-05T02:08:02.184Z,130.60
2018-11-05T02:09:02.137Z,135.20
2018-11-05T02:10:02.172Z,137.10
2018-11-05T02:11:02.076Z,135.50
2018-11-05T02:12:02.060Z,121.70
2018-11-05T02:13:02.028Z,130.80
2018-11-05T02:14:02.011Z,130.80
2018-11-05T02:15:02.113Z,138.30
2018-11-05T02:16:01.984Z,140.50
2018-11-05T02:17:04.051Z,145.00
2018-11-05T02:20:17.509Z,139.30
2018-11-05T02:21:15.885Z,134.50
2018-11-05T02:22:15.858Z,132.30
2018-11-05T02:23:15.832Z,130.80
2018-11-05T02:24:15.795Z,143.60
2018-11-05T02:25:15.763Z,132.00
2018-11-05T02:26:15.736Z,136.50
2018-11-05T02:27:15.744Z,123.40
2018-11-05T02:28:15.674Z,130.40
2018-11-05T02:29:15.643Z,132.10
2018-11-05T02:30:15.611Z,120.80
2018-11-05T02:31:15.616Z,127.70
2018-11-05T02:32:15.560Z,134.70
2018-11-05T02:33:15.523Z,143.30
2018-11-05T02:34:15.502Z,151.10
2018-11-05T02:35:15.462Z,136.10
2018-11-05T02:36:15.436Z,155.30
2018-11-05T02:37:15.403Z,134.00
2018-11-05T02:38:15.373Z,132.10
2018-11-05T02:39:15.343Z,134.40
2018-11-05T02:40:15.353Z,145.00
2018-11-05T02:41:15.300Z,131.40
2018-11-05T02:43:01.483Z,142.60
2018-11-05T02:44:01.413Z,132.30
2018-11-05T02:45:01.391Z,136.20
2018-11-05T02:46:01.358Z,138.60
2018-11-05T02:47:03.452Z,139.60
2018-11-05T02:48:01.306Z,136.00
2018-11-05T02:49:03.372Z,142.10
2018-11-05T02:50:01.255Z,145.90
2018-11-05T02:51:01.292Z,150.70
2018-11-05T02:52:01.181Z,149.90
2018-11-05T02:53:01.202Z,146.70
2018-11-05T02:54:01.205Z,150.60
2018-11-05T02:55:01.095Z,140.20
2018-11-05T02:56:07.807Z,145.60
2018-11-05T02:57:01.064Z,134.80
2018-11-05T02:58:01.069Z,154.90
2018-11-05T03:04:19.595Z,174.30
2018-11-05T03:05:30.413Z,144.70
2018-11-05T03:11:45.938Z,149.60
2018-11-05T03:12:42.637Z,150.20
2018-11-05T03:13:42.703Z,132.30
2018-11-05T03:14:42.581Z,143.10
2018-11-05T03:15:42.547Z,137.40
2018-11-05T03:16:42.516Z,135.70
2018-11-05T03:17:42.480Z,134.60
2018-11-05T03:18:42.460Z,144.00
2018-11-05T03:19:42.423Z,147.80
2018-11-05T03:20:42.397Z,139.40
2018-11-05T03:21:42.370Z,138.40
2018-11-05T03:22:42.337Z,133.70
2018-11-05T03:23:42.361Z,135.60
2018-11-05T03:24:42.275Z,151.20
2018-11-05T03:25:42.248Z,135.80
2018-11-05T03:26:42.226Z,142.90
2018-11-05T03:27:42.280Z,135.60
2018-11-05T03:28:42.165Z,124.80
2018-11-05T03:29:42.194Z,130.30
2018-11-05T03:30:42.103Z,134.80
2018-11-05T03:31:42.100Z,141.70
2018-11-05T03:32:42.050Z,146.90
2018-11-05T03:33:42.117Z,136.60
2018-11-05T03:34:41.982Z,127.20
2018-11-05T03:35:41.992Z,140.30
2018-11-05T03:36:41.921Z,130.80
2018-11-05T03:37:48.461Z,133.50
2018-11-05T03:38:48.420Z,150.80
2018-11-05T03:39:48.450Z,130.70
2018-11-05T03:40:48.347Z,131.10
2018-11-05T03:41:48.294Z,138.50
2018-11-05T03:42:48.272Z,128.50
2018-11-05T03:43:48.253Z,130.70
2018-11-05T03:44:48.223Z,134.50
2018-11-05T03:45:49.202Z,128.00
2018-11-05T03:46:48.149Z,130.00
2018-11-05T03:47:48.118Z,123.80
2018-11-05T03:48:48.095Z,128.80
2018-11-05T03:49:48.062Z,132.50
2018-11-05T03:50:51.602Z,143.60
2018-11-05T03:51:48.084Z,123.90
2018-11-05T03:52:47.976Z,130.80
2018-11-05T03:53:48.018Z,136.40
2018-11-05T03:54:47.947Z,140.70
2018-11-05T03:55:59.699Z,143.40
2018-11-05T03:56:47.915Z,137.90
2018-11-05T03:57:47.920Z,132.40
2018-11-05T03:58:47.801Z,138.20
2018-11-05T03:59:47.765Z,121.50
2018-11-05T04:00:47.842Z,135.00
2018-11-05T04:03:00.171Z,154.40
2018-11-05T04:03:59.060Z,127.60
2018-11-05T04:04:59.014Z,136.70
2018-11-05T04:06:01.116Z,134.60
2018-11-05T04:06:58.964Z,127.30
2018-11-05T04:07:59.972Z,128.50
2018-11-05T04:08:58.895Z,124.60
2018-11-05T04:09:59.886Z,129.10
2018-11-05T04:10:58.835Z,139.60
2018-11-05T04:11:58.864Z,120.40
2018-11-05T04:12:58.797Z,130.60
2018-11-05T04:13:58.752Z,124.00
2018-11-05T04:14:58.724Z,130.40
2018-11-05T04:15:58.765Z,117.80
2018-11-05T04:16:58.661Z,141.30
2018-11-05T04:17:58.632Z,136.40
2018-11-05T04:18:58.611Z,129.30
2018-11-05T04:19:58.578Z,128.30
2018-11-05T04:20:58.545Z,137.30
2018-11-05T04:21:58.515Z,134.40
2018-11-05T04:22:58.487Z,126.30
2018-11-05T04:23:58.461Z,131.60
2018-11-05T04:24:58.433Z,124.30
2018-11-05T04:25:58.402Z,136.40
2018-11-05T04:26:58.376Z,135.90
2018-11-05T04:27:58.454Z,135.90
2018-11-05T04:28:58.310Z,123.90
2018-11-05T04:29:59.409Z,138.10
2018-11-05T04:30:58.257Z,136.90
2018-11-05T04:31:58.294Z,131.40
2018-11-05T04:32:58.196Z,136.00
2018-11-05T04:33:58.166Z,131.40
2018-11-05T04:34:58.137Z,129.60
2018-11-05T04:35:58.126Z,123.50
2018-11-05T04:36:58.127Z,127.60
2018-11-05T04:37:58.056Z,138.20
2018-11-05T04:39:44.690Z,144.20
2018-11-05T04:40:44.648Z,131.30
2018-11-05T04:41:44.609Z,131.40
2018-11-05T04:42:44.590Z,137.60
2018-11-05T04:43:44.560Z,122.90
2018-11-05T04:44:44.529Z,127.50
2018-11-05T04:45:44.497Z,142.90
2018-11-05T04:46:44.576Z,133.30
2018-11-05T04:47:44.428Z,133.80
2018-11-05T04:48:44.419Z,128.70
2018-11-05T04:49:44.371Z,135.80
2018-11-05T04:50:44.344Z,130.10
2018-11-05T04:51:44.316Z,117.80
2018-11-05T04:52:44.287Z,124.00
2018-11-05T04:54:30.875Z,137.40
2018-11-05T04:55:30.822Z,131.80
2018-11-05T04:57:24.529Z,122.50
2018-11-05T04:58:24.488Z,121.20
2018-11-05T04:59:24.462Z,119.00
2018-11-05T05:00:24.432Z,116.20
2018-11-05T05:01:24.419Z,112.10
2018-11-05T05:02:10.700Z,132.10
2018-11-05T05:03:10.617Z,120.50
2018-11-05T05:04:10.556Z,121.40
2018-11-05T05:05:10.521Z,114.00
2018-11-05T05:06:10.500Z,123.30
2018-11-05T05:07:10.471Z,115.80
2018-11-05T05:08:10.446Z,117.60
2018-11-05T05:09:10.407Z,120.00
2018-11-05T05:10:10.385Z,119.20
2018-11-05T05:11:10.352Z,117.80
2018-11-05T05:12:10.317Z,111.20
2018-11-05T05:13:10.297Z,114.90
2018-11-05T05:14:10.331Z,122.10
2018-11-05T05:15:10.250Z,114.50
2018-11-05T05:16:10.278Z,125.20
2018-11-05T05:17:10.183Z,126.20
2018-11-05T05:18:10.159Z,125.40
2018-11-05T05:19:10.118Z,124.10
2018-11-05T05:20:10.099Z,136.90
2018-11-05T05:21:10.063Z,117.20
2018-11-05T05:22:10.030Z,130.60
2018-11-05T05:23:10.047Z,108.70
2018-11-05T05:27:51.523Z,208.50
2018-11-05T05:28:52.611Z,126.40
2018-11-05T05:29:38.627Z,129.90
2018-11-05T05:30:38.498Z,124.50
2018-11-05T05:31:33.730Z,146.20
2018-11-05T05:32:33.785Z,115.10
2018-11-05T05:33:33.726Z,126.10
2018-11-05T05:34:33.631Z,136.60
2018-11-05T05:35:33.624Z,141.80
2018-11-05T05:36:33.574Z,130.10
2018-11-05T05:37:33.550Z,122.70
2018-11-05T05:38:33.617Z,127.30
2018-11-05T05:39:33.482Z,121.80
2018-11-05T05:40:33.479Z,125.70
2018-11-05T05:41:33.537Z,130.30
2018-11-05T05:42:33.395Z,130.50
2018-11-05T05:43:35.469Z,133.00
2018-11-05T05:44:33.334Z,122.20
2018-11-05T05:45:34.417Z,135.20
2018-11-05T05:46:33.273Z,118.70
2018-11-05T05:47:40.236Z,131.00
2018-11-05T05:49:20.212Z,122.80
2018-11-05T05:50:20.203Z,120.80
2018-11-05T05:51:21.113Z,118.50
2018-11-05T05:52:20.043Z,119.60
2018-11-05T05:53:26.965Z,125.80
2018-11-05T05:54:19.971Z,120.30
2018-11-05T05:58:08.939Z,146.50
2018-11-05T05:59:13.590Z,136.30
2018-11-05T06:00:08.873Z,139.70
2018-11-05T06:01:08.827Z,135.30
2018-11-05T06:02:09.819Z,146.40
2018-11-05T06:03:08.780Z,128.10
2018-11-05T06:04:08.755Z,135.10
2018-11-05T06:05:14.682Z,130.00
2018-11-05T06:06:08.733Z,126.20
2018-11-05T06:06:54.475Z,123.10
2018-11-05T06:07:54.306Z,138.40
2018-11-05T06:08:54.322Z,132.40
2018-11-05T06:09:54.256Z,121.30
2018-11-05T06:10:54.341Z,119.10
2018-11-05T06:12:40.295Z,140.00
2018-11-05T06:13:40.234Z,118.70
2018-11-05T06:14:40.212Z,129.20
2018-11-05T06:15:41.359Z,133.50
2018-11-05T06:16:40.146Z,131.10
2018-11-05T06:17:46.113Z,127.90
2018-11-05T06:18:40.095Z,116.90
2018-11-05T06:19:40.165Z,103.00
2018-11-05T06:20:40.015Z,132.10
2018-11-05T06:23:51.068Z,145.20
2018-11-05T06:24:51.040Z,133.70
2018-11-05T06:25:51.064Z,142.80
2018-11-05T06:26:50.976Z,129.10
2018-11-05T06:28:17.836Z,172.30
2018-11-05T06:29:17.798Z,141.30
2018-11-05T06:30:18.832Z,139.30
2018-11-05T06:31:17.724Z,150.30
2018-11-05T06:32:17.818Z,155.30
2018-11-05T06:33:17.733Z,140.20
2018-11-05T06:34:17.751Z,145.10
2018-11-05T06:35:35.375Z,146.20
2018-11-05T06:36:34.247Z,135.20
2018-11-05T06:37:34.217Z,159.50
2018-11-05T06:38:34.161Z,146.50
2018-11-05T06:39:39.978Z,142.50
2018-11-05T06:40:34.096Z,149.60
2018-11-05T06:41:35.315Z,134.40
2018-11-05T06:42:34.045Z,141.00
2018-11-05T06:43:34.051Z,137.30
2018-11-05T06:44:34.083Z,124.10
2018-11-05T06:45:36.068Z,125.20
2018-11-05T06:47:39.080Z,150.00
2018-11-05T06:48:38.783Z,137.70
2018-11-05T06:49:38.693Z,142.50
2018-11-05T06:50:38.732Z,131.10
2018-11-05T06:51:38.610Z,142.60
2018-11-05T06:52:40.635Z,131.50
2018-11-05T06:53:38.546Z,136.50
2018-11-05T06:54:38.665Z,146.30
2018-11-05T06:55:38.493Z,152.00
2018-11-05T06:56:38.520Z,140.40
2018-11-05T06:57:38.493Z,137.70
2018-11-05T06:58:38.398Z,146.70
2018-11-05T06:59:38.374Z,155.80
2018-11-05T07:00:24.626Z,155.90
2018-11-05T07:01:24.569Z,141.20
2018-11-05T07:02:24.622Z,147.60
2018-11-05T07:03:24.511Z,152.30
2018-11-05T07:04:24.471Z,137.00
2018-11-05T07:05:24.479Z,153.50
2018-11-05T07:06:24.424Z,142.80
2018-11-05T07:07:24.471Z,150.60
2018-11-05T07:08:24.359Z,137.40
2018-11-05T07:09:24.382Z,139.10
2018-11-05T07:10:24.331Z,141.70
2018-11-05T07:11:25.502Z,144.60
2018-11-05T07:12:24.263Z,152.60
2018-11-05T07:13:24.222Z,146.90
2018-11-05T07:14:24.180Z,140.80
2018-11-05T07:15:24.158Z,148.90
2018-11-05T07:16:24.115Z,142.70
2018-11-05T07:17:24.089Z,143.90
2018-11-05T07:18:24.115Z,160.80
2018-11-05T07:19:24.083Z,155.10
2018-11-05T07:20:24.004Z,136.80
2018-11-05T07:21:23.965Z,150.90
2018-11-05T07:22:23.945Z,133.00
2018-11-05T07:24:10.214Z,146.30
2018-11-05T07:25:10.252Z,131.00
2018-11-05T07:26:10.133Z,145.30
2018-11-05T07:27:10.115Z,136.30
2018-11-05T07:28:31.199Z,150.90
2018-11-05T07:29:10.043Z,151.70
2018-11-05T07:31:04.832Z,155.40
2018-11-05T07:32:04.775Z,139.60
2018-11-05T07:33:05.917Z,150.70
2018-11-05T07:34:04.871Z,139.30
2018-11-05T07:35:04.766Z,144.60
2018-11-05T07:36:04.660Z,141.00
2018-11-05T07:37:04.662Z,143.00
2018-11-05T07:38:04.607Z,152.30
2018-11-05T07:39:04.677Z,140.20
2018-11-05T07:40:04.532Z,153.90
2018-11-05T07:41:04.581Z,155.60
2018-11-05T07:42:04.478Z,158.00
2018-11-05T07:43:04.498Z,147.50
2018-11-05T07:44:04.435Z,148.90
2018-11-05T07:45:04.410Z,149.20
2018-11-05T07:46:04.360Z,141.70
2018-11-05T07:47:04.426Z,154.40
2018-11-05T07:48:04.297Z,165.70
2018-11-05T07:49:04.328Z,159.10
2018-11-05T07:50:04.263Z,153.60
2018-11-05T07:51:04.240Z,164.40
2018-11-05T07:52:04.181Z,155.10
2018-11-05T07:53:09.074Z,152.50
2018-11-05T07:55:45.721Z,157.90
2018-11-05T07:56:45.819Z,153.60
2018-11-05T08:01:55.289Z,160.20
2018-11-05T08:02:56.776Z,158.70
2018-11-05T08:03:55.207Z,159.30
2018-11-05T08:04:55.227Z,147.50
2018-11-05T08:05:55.177Z,151.30
2018-11-05T08:07:02.083Z,160.60
2018-11-05T08:07:55.105Z,155.60
2018-11-05T08:11:16.168Z,194.20
2018-11-05T08:12:17.204Z,156.00
2018-11-05T08:14:29.107Z,182.00
2018-11-05T08:15:30.003Z,157.20
2018-11-05T08:16:28.961Z,151.90
2018-11-05T08:17:30.012Z,159.70
2018-11-05T08:18:28.902Z,157.70
2018-11-05T08:19:30.965Z,152.20
2018-11-05T08:20:28.835Z,146.00
2018-11-05T08:21:30.869Z,148.50
2018-11-05T08:22:28.754Z,157.70
2018-11-05T08:23:34.771Z,162.60
2018-11-05T08:25:39.669Z,180.40
2018-11-05T08:26:40.729Z,157.30
2018-11-05T08:27:39.577Z,168.30
2018-11-05T08:28:39.605Z,170.10
2018-11-05T08:29:39.529Z,184.40
2018-11-05T08:30:39.522Z,173.70
2018-11-05T08:31:39.463Z,181.50
2018-11-05T08:32:39.535Z,180.30
2018-11-05T08:33:39.418Z,163.30
2018-11-05T08:34:39.447Z,172.70
2018-11-05T08:35:39.335Z,162.80
2018-11-05T08:36:39.359Z,170.90
2018-11-05T08:38:49.274Z,174.60
2018-11-05T08:39:50.327Z,165.80
2018-11-05T08:44:25.974Z,150.30
2018-11-05T08:45:25.986Z,139.30
2018-11-05T08:46:25.878Z,144.10
2018-11-05T08:47:25.950Z,149.60
2018-11-05T08:48:25.816Z,159.20
2018-11-05T08:49:27.501Z,150.30
2018-11-05T08:50:25.778Z,154.30
2018-11-05T08:51:27.002Z,159.30
2018-11-05T08:52:25.695Z,147.30
2018-11-05T08:53:25.731Z,155.90
2018-11-05T08:54:25.627Z,149.80
2018-11-05T08:55:25.657Z,150.00
2018-11-05T08:58:05.727Z,146.30
2018-11-05T08:59:05.702Z,123.30
2018-11-05T09:00:05.640Z,122.60
2018-11-05T09:01:05.719Z,126.80
2018-11-05T09:02:05.573Z,121.20
2018-11-05T09:03:05.541Z,121.80
2018-11-05T09:04:05.520Z,136.20
2018-11-05T09:05:06.696Z,115.90
2018-11-05T09:06:05.452Z,131.40
2018-11-05T09:07:06.521Z,133.70
2018-11-05T09:08:05.388Z,131.30
2018-11-05T09:09:05.456Z,116.20
2018-11-05T09:11:10.430Z,145.20
2018-11-05T09:12:10.016Z,111.90
2018-11-05T09:13:09.798Z,108.90
2018-11-05T09:15:04.652Z,122.50
2018-11-05T09:16:04.547Z,115.30
2018-11-05T09:17:04.593Z,115.20
2018-11-05T09:18:04.473Z,115.60
2018-11-05T09:19:05.556Z,117.00
2018-11-05T09:20:04.425Z,108.00
2018-11-05T09:21:04.432Z,111.50
2018-11-05T09:22:04.354Z,100.10
2018-11-05T09:23:04.435Z,105.30
2018-11-05T09:24:04.290Z,102.10
2018-11-05T09:25:04.354Z,113.70
2018-11-05T09:26:54.312Z,127.00
2018-11-05T09:27:54.468Z,115.60
2018-11-05T09:28:54.227Z,102.70
2018-11-05T09:29:54.253Z,114.80
2018-11-05T09:30:54.184Z,111.20
2018-11-05T09:31:54.242Z,100.90
2018-11-05T09:32:54.106Z,101.20
2018-11-05T09:33:55.176Z,103.50
2018-11-05T09:34:54.061Z,107.50
2018-11-05T09:35:54.052Z,94.30
2018-11-05T09:36:53.997Z,103.10
2018-11-05T09:37:53.976Z,103.20
2018-11-05T09:38:53.929Z,99.70
2018-11-05T09:39:54.000Z,99.50
2018-11-05T09:40:53.892Z,87.10
2018-11-05T09:41:53.895Z,89.10
2018-11-05T09:43:47.535Z,93.50
2018-11-05T09:44:47.580Z,83.30
2018-11-05T09:45:47.456Z,81.70
2018-11-05T09:46:47.467Z,84.80
2018-11-05T09:47:47.443Z,84.40
2018-11-05T09:48:47.389Z,81.00
2018-11-05T09:49:47.343Z,84.40
2018-11-05T09:50:47.478Z,85.00
2018-11-05T09:51:47.278Z,81.50
2018-11-05T09:52:47.302Z,84.60
2018-11-05T09:53:47.226Z,74.10
2018-11-05T09:54:47.224Z,79.00
2018-11-05T09:55:47.176Z,71.60
2018-11-05T09:56:47.131Z,74.60
2018-11-05T09:57:47.096Z,75.40
2018-11-05T09:58:47.158Z,71.50
2018-11-05T09:59:47.021Z,64.40
2018-11-05T10:00:48.079Z,64.70
2018-11-05T10:01:46.961Z,63.90
2018-11-05T10:02:47.030Z,60.80
2018-11-05T10:03:47.066Z,55.80
2018-11-05T10:04:47.239Z,54.80
2018-11-05T10:05:46.850Z,53.90
2018-11-05T10:06:46.921Z,48.50
2018-11-05T10:07:46.799Z,53.30
2018-11-05T10:08:46.812Z,52.50
2018-11-05T10:10:45.791Z,58.60
2018-11-05T10:11:45.808Z,55.40
2018-11-05T10:12:45.686Z,33.50
2018-11-05T10:13:45.715Z,38.10
2018-11-05T10:14:45.637Z,32.40
2018-11-05T10:15:46.635Z,28.60
2018-11-05T10:16:45.587Z,29.30
2018-11-05T10:18:34.008Z,33.40
2018-11-05T10:19:34.088Z,28.20
2018-11-05T10:20:33.936Z,27.30
2018-11-05T10:21:33.984Z,25.30
2018-11-05T10:22:33.863Z,27.50
2018-11-05T10:23:33.894Z,27.80
2018-11-05T10:24:33.919Z,25.00
2018-11-05T10:25:35.847Z,25.20
2018-11-05T10:26:33.749Z,24.90
2018-11-05T10:27:33.818Z,29.30
2018-11-05T10:28:33.700Z,24.00
2018-11-05T10:29:34.761Z,29.90
2018-11-05T10:30:33.617Z,24.00
2018-11-05T10:31:33.629Z,28.70
2018-11-05T10:32:33.561Z,30.50
2018-11-05T10:33:26.946Z,35.10
2018-11-05T10:34:26.916Z,30.50
2018-11-05T10:35:26.780Z,28.30
2018-11-05T10:36:26.805Z,29.20
2018-11-05T10:37:26.726Z,30.40
2018-11-05T10:38:27.804Z,25.90
2018-11-05T10:39:26.690Z,26.40
2018-11-05T10:40:21.617Z,34.60
2018-11-05T10:41:21.515Z,27.60
2018-11-05T10:42:21.408Z,25.80
2018-11-05T10:43:21.423Z,26.50
2018-11-05T10:44:21.363Z,27.40
2018-11-05T10:45:21.345Z,44.00
2018-11-05T10:46:21.378Z,39.50
2018-11-05T10:47:21.336Z,36.60
2018-11-05T10:48:21.248Z,28.80
2018-11-05T10:49:21.264Z,27.70
2018-11-05T10:50:21.211Z,32.00
2018-11-05T10:51:21.239Z,25.20
2018-11-05T10:52:21.155Z,28.00
2018-11-05T10:53:21.178Z,40.00
2018-11-05T10:54:21.032Z,38.70
2018-11-05T10:55:22.111Z,27.20
2018-11-05T10:56:20.977Z,49.70
2018-11-05T10:57:21.008Z,25.20
2018-11-05T10:58:21.106Z,21.40
2018-11-05T10:59:08.118Z,29.70
2018-11-05T11:00:09.147Z,29.40
2018-11-05T11:01:08.020Z,24.90
2018-11-05T11:02:10.088Z,26.10
2018-11-05T11:03:07.956Z,21.30
2018-11-05T11:04:10.274Z,21.50
2018-11-05T11:05:07.925Z,22.00
2018-11-05T11:06:08.981Z,22.00
2018-11-05T11:07:07.869Z,27.40
2018-11-05T11:08:07.888Z,21.30
2018-11-05T11:09:07.782Z,23.70
2018-11-05T11:10:07.856Z,21.40
2018-11-05T11:11:07.725Z,27.40
2018-11-05T11:12:07.879Z,24.30
2018-11-05T11:13:07.813Z,22.00
2018-11-05T11:15:00.127Z,30.00
2018-11-05T11:15:59.809Z,27.20
2018-11-05T11:16:59.919Z,30.70
2018-11-05T11:17:59.755Z,32.00
2018-11-05T11:18:59.849Z,30.70
2018-11-05T11:19:59.714Z,22.80
2018-11-05T11:20:59.754Z,29.00
2018-11-05T11:21:59.650Z,28.10
2018-11-05T11:22:59.603Z,27.40
2018-11-05T11:23:59.574Z,21.80
2018-11-05T11:25:00.652Z,24.70
2018-11-05T11:25:59.514Z,23.60
2018-11-05T11:28:17.007Z,36.50
2018-11-05T11:29:17.101Z,24.20
2018-11-05T11:31:12.166Z,28.20
2018-11-05T11:32:11.003Z,28.30
2018-11-05T11:33:11.144Z,21.30
2018-11-05T11:34:10.939Z,23.80
2018-11-05T11:35:12.043Z,20.40
2018-11-05T11:36:10.887Z,19.60
2018-11-05T11:37:13.111Z,21.00
2018-11-05T11:38:10.822Z,18.90
2018-11-05T11:39:10.789Z,18.40
2018-11-05T11:40:10.945Z,18.70
2018-11-05T11:41:10.722Z,22.50
2018-11-05T11:42:10.696Z,20.90
2018-11-05T11:43:10.684Z,27.20
2018-11-05T11:44:56.999Z,27.10
2018-11-05T11:45:57.066Z,26.90
2018-11-05T11:46:56.833Z,19.30
2018-11-05T11:47:56.882Z,31.10
2018-11-05T11:48:56.786Z,19.60
2018-11-05T11:49:56.778Z,18.60
2018-11-05T11:50:56.710Z,18.10
2018-11-05T11:51:56.783Z,24.40
2018-11-05T11:52:56.729Z,18.90
2018-11-05T11:53:57.725Z,20.20
2018-11-05T11:54:56.612Z,21.90
2018-11-05T11:55:56.639Z,26.90
2018-11-05T11:57:43.898Z,20.50
2018-11-05T11:58:43.852Z,16.90
2018-11-05T11:59:43.882Z,19.60
2018-11-05T12:00:43.785Z,23.60
2018-11-05T12:01:43.742Z,20.20
2018-11-05T12:02:43.762Z,21.10
2018-11-05T12:03:43.769Z,21.30
2018-11-05T12:04:43.687Z,23.70
2018-11-05T12:05:43.627Z,21.40
2018-11-05T12:06:43.605Z,22.40
2018-11-05T12:07:43.573Z,23.70
2018-11-05T12:08:49.412Z,23.70
2018-11-05T12:09:43.519Z,20.90
2018-11-05T12:10:43.688Z,18.00
2018-11-05T12:11:43.459Z,21.00
2018-11-05T12:12:43.433Z,23.60
2018-11-05T12:13:30.175Z,17.90
2018-11-05T12:14:30.199Z,18.00
2018-11-05T12:15:30.212Z,18.00
2018-11-05T12:16:30.075Z,14.70
2018-11-05T12:17:30.066Z,16.90
2018-11-05T12:18:30.008Z,15.50
2018-11-05T12:19:29.979Z,17.40
2018-11-05T12:20:30.147Z,14.20
2018-11-05T12:21:29.916Z,12.20
2018-11-05T12:22:29.896Z,15.00
2018-11-05T12:23:29.895Z,19.60
2018-11-05T12:24:29.892Z,13.40
2018-11-05T12:25:29.798Z,12.70
2018-11-05T12:26:29.772Z,14.70
2018-11-05T12:27:29.753Z,12.60
2018-11-05T12:28:29.705Z,13.60
2018-11-05T12:29:29.795Z,10.40
2018-11-05T12:30:29.661Z,12.40
2018-11-05T12:31:29.801Z,11.70
2018-11-05T12:32:29.591Z,15.40
2018-11-05T12:33:29.713Z,10.90
2018-11-05T12:34:29.534Z,13.30
2018-11-05T12:35:35.274Z,16.10
2018-11-05T12:36:29.474Z,12.70
2018-11-05T12:37:29.622Z,13.30
2018-11-05T12:38:29.496Z,14.40
2018-11-05T12:39:29.395Z,10.60
2018-11-05T12:40:29.362Z,12.20
2018-11-05T12:41:29.464Z,12.10
2018-11-05T12:43:49.198Z,29.70
2018-11-05T12:44:50.022Z,11.10
2018-11-05T12:45:48.825Z,10.40
2018-11-05T12:46:49.874Z,20.30
2018-11-05T12:47:48.802Z,14.90
2018-11-05T12:48:48.742Z,14.80
2018-11-05T12:49:55.829Z,21.50
2018-11-05T12:50:48.784Z,18.80
2018-11-05T12:51:48.698Z,20.50
2018-11-05T12:52:48.617Z,18.20
2018-11-05T12:53:48.716Z,13.80
2018-11-05T12:54:48.572Z,13.80
2018-11-05T12:55:48.636Z,11.40
2018-11-05T12:56:48.503Z,13.50
2018-11-05T12:57:48.554Z,14.80
2018-11-05T12:58:48.443Z,10.60
2018-11-05T12:59:48.419Z,14.60
2018-11-05T13:00:48.530Z,12.00
2018-11-05T13:01:48.386Z,14.70
2018-11-05T13:02:48.319Z,15.10
2018-11-05T13:04:35.558Z,14.30
2018-11-05T13:05:35.520Z,12.50
2018-11-05T13:06:35.481Z,12.90
2018-11-05T13:07:35.622Z,10.60
2018-11-05T13:08:35.433Z,13.20
2018-11-05T13:09:35.530Z,12.10
2018-11-05T13:10:35.399Z,13.20
2018-11-05T13:11:35.429Z,11.80
2018-11-05T13:12:35.332Z,16.80
2018-11-05T13:13:35.450Z,15.00
2018-11-05T13:14:35.252Z,13.30
2018-11-05T13:15:35.426Z,13.40
2018-11-05T13:16:35.203Z,11.90
2018-11-05T13:17:35.283Z,14.50
2018-11-05T13:18:35.132Z,28.20
2018-11-05T13:19:35.184Z,15.20
2018-11-05T13:20:35.077Z,14.80
2018-11-05T13:21:35.199Z,14.10
2018-11-05T13:22:35.017Z,18.90
2018-11-05T13:23:37.164Z,18.60
2018-11-05T13:24:34.979Z,17.30
2018-11-05T13:25:35.032Z,10.80
2018-11-05T13:26:34.928Z,13.90
2018-11-05T13:28:23.108Z,15.80
2018-11-05T13:29:23.007Z,11.00
2018-11-05T13:30:23.081Z,27.50
2018-11-05T13:31:22.931Z,25.10
2018-11-05T13:32:22.907Z,16.50
2018-11-05T13:33:28.634Z,10.70
2018-11-05T13:34:22.845Z,11.40
2018-11-05T13:35:24.976Z,13.20
2018-11-05T13:36:22.780Z,12.40
2018-11-05T13:37:23.169Z,15.20
2018-11-05T13:38:22.741Z,12.10
2018-11-05T13:39:22.862Z,11.10
2018-11-05T13:40:22.722Z,12.50
2018-11-05T13:41:22.719Z,11.30